sensor_id;sensor_type;location;lat;lon;timestamp;temperature;humidity
53272;DHT22;39160;48.580;7.756;2022-09-03T00:00:50;21.80;94.00
53272;DHT22;39160;48.580;7.756;2022-09-03T00:05:43;21.70;94.20
53272;DHT22;39160;48.580;7.756;2022-09-03T00:15:54;21.70;94.70
53272;DHT22;39160;48.580;7.756;2022-09-03T00:20:51;21.90;94.70
53272;DHT22;39160;48.580;7.756;2022-09-03T00:30:45;21.80;95.00
53272;DHT22;39160;48.580;7.756;2022-09-03T00:35:39;21.70;95.20
53272;DHT22;39160;48.580;7.756;2022-09-03T00:40:47;21.60;95.40
53272;DHT22;39160;48.580;7.756;2022-09-03T01:00:50;21.40;96.00
53272;DHT22;39160;48.580;7.756;2022-09-03T01:17:00;21.40;96.50
53272;DHT22;39160;48.580;7.756;2022-09-03T01:32:12;21.20;96.80
53272;DHT22;39160;48.580;7.756;2022-09-03T01:37:16;21.10;96.90
53272;DHT22;39160;48.580;7.756;2022-09-03T01:47:27;21.30;96.80
53272;DHT22;39160;48.580;7.756;2022-09-03T01:57:49;21.20;97.00
53272;DHT22;39160;48.580;7.756;2022-09-03T02:02:43;21.30;97.00
53272;DHT22;39160;48.580;7.756;2022-09-03T02:07:44;21.20;97.00
53272;DHT22;39160;48.580;7.756;2022-09-03T02:12:37;21.20;97.10
53272;DHT22;39160;48.580;7.756;2022-09-03T02:17:30;21.00;97.20
53272;DHT22;39160;48.580;7.756;2022-09-03T02:22:21;21.00;97.30
53272;DHT22;39160;48.580;7.756;2022-09-03T02:27:12;21.00;97.30
53272;DHT22;39160;48.580;7.756;2022-09-03T02:32:03;20.90;97.60
53272;DHT22;39160;48.580;7.756;2022-09-03T02:36:54;20.80;97.50
53272;DHT22;39160;48.580;7.756;2022-09-03T02:41:55;20.70;97.60
53272;DHT22;39160;48.580;7.756;2022-09-03T02:46:51;20.70;97.50
53272;DHT22;39160;48.580;7.756;2022-09-03T02:51:43;20.80;97.60
53272;DHT22;39160;48.580;7.756;2022-09-03T02:56:34;20.80;97.50
53272;DHT22;39160;48.580;7.756;2022-09-03T03:01:25;20.70;97.70
53272;DHT22;39160;48.580;7.756;2022-09-03T03:06:16;20.60;97.80
53272;DHT22;39160;48.580;7.756;2022-09-03T03:11:10;20.70;97.80
53272;DHT22;39160;48.580;7.756;2022-09-03T03:16:03;20.80;97.80
53272;DHT22;39160;48.580;7.756;2022-09-03T03:20:55;20.80;97.90
53272;DHT22;39160;48.580;7.756;2022-09-03T03:25:46;20.80;97.80
53272;DHT22;39160;48.580;7.756;2022-09-03T03:30:38;20.90;97.70
53272;DHT22;39160;48.580;7.756;2022-09-03T03:35:29;20.80;97.80
53272;DHT22;39160;48.580;7.756;2022-09-03T03:40:20;20.70;98.00
53272;DHT22;39160;48.580;7.756;2022-09-03T03:45:10;20.70;97.90
53272;DHT22;39160;48.580;7.756;2022-09-03T03:50:01;20.50;98.10
53272;DHT22;39160;48.580;7.756;2022-09-03T03:54:52;20.50;98.10
53272;DHT22;39160;48.580;7.756;2022-09-03T03:59:44;20.50;98.10
53272;DHT22;39160;48.580;7.756;2022-09-03T04:04:34;20.50;98.10
53272;DHT22;39160;48.580;7.756;2022-09-03T04:09:25;20.30;98.40
53272;DHT22;39160;48.580;7.756;2022-09-03T04:14:16;20.30;98.60
53272;DHT22;39160;48.580;7.756;2022-09-03T04:19:09;20.20;98.70
53272;DHT22;39160;48.580;7.756;2022-09-03T04:24:02;20.20;98.70
53272;DHT22;39160;48.580;7.756;2022-09-03T04:28:53;20.30;98.80
53272;DHT22;39160;48.580;7.756;2022-09-03T04:33:44;20.30;98.70
53272;DHT22;39160;48.580;7.756;2022-09-03T04:38:37;20.30;98.90
53272;DHT22;39160;48.580;7.756;2022-09-03T04:43:28;20.30;99.10
53272;DHT22;39160;48.580;7.756;2022-09-03T04:48:18;20.30;99.20
53272;DHT22;39160;48.580;7.756;2022-09-03T04:53:09;20.30;99.30
53272;DHT22;39160;48.580;7.756;2022-09-03T04:58:00;20.30;99.50
53272;DHT22;39160;48.580;7.756;2022-09-03T05:02:50;20.20;99.70
53272;DHT22;39160;48.580;7.756;2022-09-03T05:07:41;20.20;99.80
53272;DHT22;39160;48.580;7.756;2022-09-03T05:12:32;20.10;99.80
53272;DHT22;39160;48.580;7.756;2022-09-03T05:17:23;20.20;99.90
53272;DHT22;39160;48.580;7.756;2022-09-03T05:22:14;20.10;99.90
53272;DHT22;39160;48.580;7.756;2022-09-03T05:27:10;20.20;99.90
53272;DHT22;39160;48.580;7.756;2022-09-03T05:32:01;20.30;99.90
53272;DHT22;39160;48.580;7.756;2022-09-03T05:36:53;20.30;99.90
53272;DHT22;39160;48.580;7.756;2022-09-03T05:41:44;20.20;99.90
53272;DHT22;39160;48.580;7.756;2022-09-03T05:46:35;20.20;99.90
53272;DHT22;39160;48.580;7.756;2022-09-03T05:51:27;20.00;99.90
53272;DHT22;39160;48.580;7.756;2022-09-03T05:56:20;20.00;99.90
53272;DHT22;39160;48.580;7.756;2022-09-03T06:01:12;20.20;99.90
53272;DHT22;39160;48.580;7.756;2022-09-03T06:06:03;20.40;99.90
53272;DHT22;39160;48.580;7.756;2022-09-03T06:10:58;20.50;99.90
53272;DHT22;39160;48.580;7.756;2022-09-03T06:15:49;20.30;99.90
53272;DHT22;39160;48.580;7.756;2022-09-03T06:20:40;20.30;99.90
53272;DHT22;39160;48.580;7.756;2022-09-03T06:25:30;20.30;99.90
53272;DHT22;39160;48.580;7.756;2022-09-03T06:30:21;20.60;99.90
53272;DHT22;39160;48.580;7.756;2022-09-03T06:35:13;20.70;99.90
53272;DHT22;39160;48.580;7.756;2022-09-03T06:40:04;20.90;99.90
53272;DHT22;39160;48.580;7.756;2022-09-03T06:44:55;20.80;99.90
53272;DHT22;39160;48.580;7.756;2022-09-03T06:49:46;20.80;99.90
53272;DHT22;39160;48.580;7.756;2022-09-03T06:54:37;21.00;99.90
53272;DHT22;39160;48.580;7.756;2022-09-03T06:59:30;21.30;99.90
53272;DHT22;39160;48.580;7.756;2022-09-03T07:04:21;21.10;99.90
53272;DHT22;39160;48.580;7.756;2022-09-03T07:09:14;21.20;99.90
53272;DHT22;39160;48.580;7.756;2022-09-03T07:14:07;21.10;99.90
53272;DHT22;39160;48.580;7.756;2022-09-03T07:18:58;21.40;99.90
53272;DHT22;39160;48.580;7.756;2022-09-03T07:23:51;21.70;99.90
53272;DHT22;39160;48.580;7.756;2022-09-03T07:28:43;22.10;99.90
53272;DHT22;39160;48.580;7.756;2022-09-03T07:33:35;22.20;99.90
53272;DHT22;39160;48.580;7.756;2022-09-03T07:38:26;22.30;99.90
53272;DHT22;39160;48.580;7.756;2022-09-03T07:43:16;22.50;99.90
53272;DHT22;39160;48.580;7.756;2022-09-03T07:48:09;22.30;99.90
53272;DHT22;39160;48.580;7.756;2022-09-03T07:53:00;21.80;99.90
53272;DHT22;39160;48.580;7.756;2022-09-03T07:57:57;21.60;99.90
53272;DHT22;39160;48.580;7.756;2022-09-03T08:02:50;21.20;99.90
53272;DHT22;39160;48.580;7.756;2022-09-03T08:07:41;21.20;99.90
53272;DHT22;39160;48.580;7.756;2022-09-03T08:12:31;21.40;99.90
53272;DHT22;39160;48.580;7.756;2022-09-03T08:17:22;21.30;99.90
53272;DHT22;39160;48.580;7.756;2022-09-03T08:22:13;21.40;99.90
53272;DHT22;39160;48.580;7.756;2022-09-03T08:27:04;21.80;99.90
53272;DHT22;39160;48.580;7.756;2022-09-03T08:31:55;22.30;99.90
53272;DHT22;39160;48.580;7.756;2022-09-03T08:36:46;22.90;99.90
53272;DHT22;39160;48.580;7.756;2022-09-03T08:51:52;23.10;99.90
53272;DHT22;39160;48.580;7.756;2022-09-03T08:56:45;22.60;99.90
53272;DHT22;39160;48.580;7.756;2022-09-03T09:21:46;21.90;99.90
53272;DHT22;39160;48.580;7.756;2022-09-03T09:26:40;22.10;99.90
53272;DHT22;39160;48.580;7.756;2022-09-03T09:31:31;22.50;99.90
53272;DHT22;39160;48.580;7.756;2022-09-03T09:36:21;22.70;99.90
53272;DHT22;39160;48.580;7.756;2022-09-03T09:41:15;22.80;99.90
53272;DHT22;39160;48.580;7.756;2022-09-03T09:46:13;22.90;99.90
53272;DHT22;39160;48.580;7.756;2022-09-03T09:55:56;23.00;99.90
53272;DHT22;39160;48.580;7.756;2022-09-03T10:00:55;23.00;99.90
53272;DHT22;39160;48.580;7.756;2022-09-03T10:05:59;23.20;99.90
53272;DHT22;39160;48.580;7.756;2022-09-03T10:10:51;23.40;99.80
53272;DHT22;39160;48.580;7.756;2022-09-03T10:15:55;23.30;99.90
53272;DHT22;39160;48.580;7.756;2022-09-03T10:21:00;23.20;99.90
53272;DHT22;39160;48.580;7.756;2022-09-03T10:26:04;23.10;99.90
53272;DHT22;39160;48.580;7.756;2022-09-03T10:36:11;22.90;99.90
53272;DHT22;39160;48.580;7.756;2022-09-03T10:41:25;23.10;99.90
53272;DHT22;39160;48.580;7.756;2022-09-03T10:46:24;23.20;99.90
53272;DHT22;39160;48.580;7.756;2022-09-03T10:51:19;23.10;99.90
53272;DHT22;39160;48.580;7.756;2022-09-03T10:56:21;23.00;99.90
53272;DHT22;39160;48.580;7.756;2022-09-03T11:06:53;23.40;99.90
53272;DHT22;39160;48.580;7.756;2022-09-03T11:11:52;24.10;99.90
53272;DHT22;39160;48.580;7.756;2022-09-03T11:16:53;24.30;99.90
53272;DHT22;39160;48.580;7.756;2022-09-03T11:21:46;24.80;99.70
53272;DHT22;39160;48.580;7.756;2022-09-03T11:36:49;25.20;98.90
53272;DHT22;39160;48.580;7.756;2022-09-03T11:41:55;24.80;99.20
53272;DHT22;39160;48.580;7.756;2022-09-03T11:46:56;24.50;99.30
53272;DHT22;39160;48.580;7.756;2022-09-03T11:52:02;24.80;98.40
53272;DHT22;39160;48.580;7.756;2022-09-03T11:57:06;25.40;97.60
53272;DHT22;39160;48.580;7.756;2022-09-03T12:22:35;25.00;96.40
53272;DHT22;39160;48.580;7.756;2022-09-03T12:27:32;24.60;96.50
53272;DHT22;39160;48.580;7.756;2022-09-03T12:32:23;24.10;96.40
53272;DHT22;39160;48.580;7.756;2022-09-03T12:37:22;23.60;96.50
53272;DHT22;39160;48.580;7.756;2022-09-03T12:42:22;23.50;96.20
53272;DHT22;39160;48.580;7.756;2022-09-03T12:47:18;23.40;96.10
53272;DHT22;39160;48.580;7.756;2022-09-03T12:52:32;23.10;96.50
53272;DHT22;39160;48.580;7.756;2022-09-03T12:57:35;23.00;96.20
53272;DHT22;39160;48.580;7.756;2022-09-03T13:02:52;23.00;96.20
53272;DHT22;39160;48.580;7.756;2022-09-03T13:07:46;22.90;96.30
53272;DHT22;39160;48.580;7.756;2022-09-03T13:12:45;22.80;96.60
53272;DHT22;39160;48.580;7.756;2022-09-03T13:22:49;22.80;96.90
53272;DHT22;39160;48.580;7.756;2022-09-03T13:28:35;23.10;96.90
53272;DHT22;39160;48.580;7.756;2022-09-03T13:33:33;23.30;96.80
53272;DHT22;39160;48.580;7.756;2022-09-03T13:38:38;23.30;97.20
53272;DHT22;39160;48.580;7.756;2022-09-03T13:43:51;22.90;97.60
53272;DHT22;39160;48.580;7.756;2022-09-03T13:48:47;22.70;97.80
53272;DHT22;39160;48.580;7.756;2022-09-03T13:59:13;22.50;98.20
53272;DHT22;39160;48.580;7.756;2022-09-03T14:04:17;22.40;98.50
53272;DHT22;39160;48.580;7.756;2022-09-03T14:09:26;22.40;98.70
53272;DHT22;39160;48.580;7.756;2022-09-03T14:14:44;22.90;98.50
53272;DHT22;39160;48.580;7.756;2022-09-03T14:29:51;25.20;97.70
53272;DHT22;39160;48.580;7.756;2022-09-03T14:35:11;25.10;98.00
53272;DHT22;39160;48.580;7.756;2022-09-03T15:06:38;25.90;96.90
53272;DHT22;39160;48.580;7.756;2022-09-03T15:11:31;26.20;96.80
53272;DHT22;39160;48.580;7.756;2022-09-03T15:16:37;27.50;95.70
53272;DHT22;39160;48.580;7.756;2022-09-03T15:36:48;34.20;91.50
53272;DHT22;39160;48.580;7.756;2022-09-03T15:41:45;35.20;88.40
53272;DHT22;39160;48.580;7.756;2022-09-03T15:47:02;33.80;89.90
53272;DHT22;39160;48.580;7.756;2022-09-03T15:57:12;27.30;93.40
53272;DHT22;39160;48.580;7.756;2022-09-03T16:02:11;26.30;94.00
53272;DHT22;39160;48.580;7.756;2022-09-03T16:17:12;27.30;93.60
53272;DHT22;39160;48.580;7.756;2022-09-03T16:27:36;34.20;84.60
53272;DHT22;39160;48.580;7.756;2022-09-03T16:42:51;29.40;89.40
53272;DHT22;39160;48.580;7.756;2022-09-03T16:53:30;33.30;82.60
53272;DHT22;39160;48.580;7.756;2022-09-03T17:04:24;34.90;75.10
53272;DHT22;39160;48.580;7.756;2022-09-03T17:24:58;26.70;90.10
53272;DHT22;39160;48.580;7.756;2022-09-03T17:30:38;26.20;90.40
53272;DHT22;39160;48.580;7.756;2022-09-03T17:40:36;25.50;91.10
53272;DHT22;39160;48.580;7.756;2022-09-03T17:50:57;25.00;91.70
53272;DHT22;39160;48.580;7.756;2022-09-03T17:56:41;24.80;91.90
53272;DHT22;39160;48.580;7.756;2022-09-03T18:01:17;24.70;92.10
53272;DHT22;39160;48.580;7.756;2022-09-03T18:11:40;24.50;92.50
53272;DHT22;39160;48.580;7.756;2022-09-03T18:17:09;24.40;92.60
53272;DHT22;39160;48.580;7.756;2022-09-03T18:22:03;24.20;92.90
53272;DHT22;39160;48.580;7.756;2022-09-03T18:32:43;24.30;93.20
53272;DHT22;39160;48.580;7.756;2022-09-03T18:37:52;24.30;93.20
53272;DHT22;39160;48.580;7.756;2022-09-03T18:43:20;24.20;93.50
53272;DHT22;39160;48.580;7.756;2022-09-03T18:49:31;24.10;93.70
53272;DHT22;39160;48.580;7.756;2022-09-03T19:05:22;24.10;94.40
53272;DHT22;39160;48.580;7.756;2022-09-03T19:11:45;24.10;94.50
53272;DHT22;39160;48.580;7.756;2022-09-03T19:22:11;24.20;94.60
53272;DHT22;39160;48.580;7.756;2022-09-03T19:27:34;24.10;94.80
53272;DHT22;39160;48.580;7.756;2022-09-03T19:38:45;23.90;95.20
53272;DHT22;39160;48.580;7.756;2022-09-03T19:44:03;23.80;95.40
53272;DHT22;39160;48.580;7.756;2022-09-03T19:54:46;23.70;95.70
53272;DHT22;39160;48.580;7.756;2022-09-03T19:59:58;23.70;95.70
53272;DHT22;39160;48.580;7.756;2022-09-03T20:05:19;23.60;95.90
53272;DHT22;39160;48.580;7.756;2022-09-03T20:10:29;23.60;96.40
53272;DHT22;39160;48.580;7.756;2022-09-03T20:15:22;23.50;96.10
53272;DHT22;39160;48.580;7.756;2022-09-03T20:30:12;23.40;96.50
53272;DHT22;39160;48.580;7.756;2022-09-03T20:51:19;23.30;97.00
53272;DHT22;39160;48.580;7.756;2022-09-03T20:56:32;23.20;97.10
53272;DHT22;39160;48.580;7.756;2022-09-03T21:02:06;23.20;97.30
53272;DHT22;39160;48.580;7.756;2022-09-03T21:12:37;23.10;97.70
53272;DHT22;39160;48.580;7.756;2022-09-03T21:17:41;23.10;97.50
53272;DHT22;39160;48.580;7.756;2022-09-03T21:27:55;23.00;97.90
53272;DHT22;39160;48.580;7.756;2022-09-03T21:38:18;22.60;98.50
53272;DHT22;39160;48.580;7.756;2022-09-03T21:43:27;22.40;98.90
53272;DHT22;39160;48.580;7.756;2022-09-03T21:48:24;22.20;99.20
53272;DHT22;39160;48.580;7.756;2022-09-03T21:58:44;22.00;99.60
53272;DHT22;39160;48.580;7.756;2022-09-03T22:03:41;22.10;99.70
53272;DHT22;39160;48.580;7.756;2022-09-03T22:08:45;22.10;99.70
53272;DHT22;39160;48.580;7.756;2022-09-03T22:13:46;22.10;99.90
53272;DHT22;39160;48.580;7.756;2022-09-03T22:18:39;22.10;99.90
53272;DHT22;39160;48.580;7.756;2022-09-03T22:23:39;22.10;99.90
53272;DHT22;39160;48.580;7.756;2022-09-03T22:28:45;21.90;99.90
53272;DHT22;39160;48.580;7.756;2022-09-03T22:43:54;21.90;99.90
53272;DHT22;39160;48.580;7.756;2022-09-03T22:54:12;21.60;99.90
53272;DHT22;39160;48.580;7.756;2022-09-03T22:59:22;21.60;99.90
53272;DHT22;39160;48.580;7.756;2022-09-03T23:04:30;21.60;99.90
53272;DHT22;39160;48.580;7.756;2022-09-03T23:09:31;21.70;99.90
53272;DHT22;39160;48.580;7.756;2022-09-03T23:14:27;21.60;99.90
53272;DHT22;39160;48.580;7.756;2022-09-03T23:19:34;21.50;99.90
53272;DHT22;39160;48.580;7.756;2022-09-03T23:25:05;21.60;99.90
53272;DHT22;39160;48.580;7.756;2022-09-03T23:29:54;21.50;99.90
53272;DHT22;39160;48.580;7.756;2022-09-03T23:34:46;21.40;99.90
53272;DHT22;39160;48.580;7.756;2022-09-03T23:39:46;21.40;99.90
53272;DHT22;39160;48.580;7.756;2022-09-03T23:50:06;21.20;99.90
